LNG Libra — V7BX3 — position and weather

sailwx.info

Track history (hours):
 
Tides and Currents Weather Stations Pressure Air Temp Water Temp Dewpoint Dewpoint Depression Visibility Wind Speed Wind Dir Waves Ship Positions

LNG Libra

Last reported at 2015-Aug-31 22:33 UTC. Time now 2015-Sep-02 08:37 UTC.
Position S 25°30' W 041°60'.

Type: Tanker. MMSI: 538001390.

Date/timePositionNaut miles runAvg speedWind from/ knotsBaromVisibWave heightAir tempDewpointWater temp
2015-Aug-31 22:33S 25°30' W 041°60'1515.1
2015-Aug-31 21:33S 25°41' W 042°11'4714.6
2015-Aug-31 18:18S 26°09' W 042°55'1115.2
2015-Aug-31 17:33S 26°13' W 043°06'1515.1
2015-Aug-31 16:33S 26°19' W 043°22'1515.2
2015-Aug-31 15:33S 26°25' W 043°38'1514.8
2015-Aug-31 14:33S 26°31' W 043°53'1514.7
2015-Aug-31 13:32S 26°36' W 044°08'2914.5
2015-Aug-31 11:33S 26°47' W 044°38'6214.4
2015-Aug-31 07:17S 27°10' W 045°42'3813.9
2015-Aug-31 04:32S 27°25' W 046°21'1313.5
2015-Aug-31 03:33S 27°30' W 046°35'1313.5
2015-Aug-31 02:34S 27°35' W 046°49'1413.9
2015-Aug-31 01:33S 27°41' W 047°04'1414.1
2015-Aug-31 00:34S 27°46' W 047°19'1413.8
2015-Aug-30 23:33S 27°53' W 047°32'1414.1
2015-Aug-30 22:33S 28°05' W 047°41'1514.4
2015-Aug-30 21:30S 28°18' W 047°50'1414.4
2015-Aug-30 20:33S 28°29' W 047°58'1414.2
2015-Aug-30 19:33S 28°41' W 048°07'1414.1
2015-Aug-30 18:33S 28°53' W 048°15'1414.1
2015-Aug-30 17:33S 29°05' W 048°24'1414.1
2015-Aug-30 16:33S 29°17' W 048°32'1413.7
2015-Aug-30 15:31S 29°29' W 048°41'1414.1
2015-Aug-30 14:33S 29°41' W 048°49'4313.6
2015-Aug-30 11:25S 30°17' W 049°15'1213.2
2015-Aug-30 10:33S 30°27' W 049°22'1313.1
2015-Aug-30 09:32S 30°38' W 049°31'47212.0
2015-Aug-28 18:23S 34°50' W 057°24'1012.1
2015-Aug-28 17:33S 34°46' W 057°35'10 9.8
2015-Aug-28 16:33S 34°45' W 057°47'0 0.3
2015-Aug-28 15:33S 34°45' W 057°47'0 0.0
2015-Aug-28 14:33S 34°45' W 057°47'0 0.0
2015-Aug-28 13:33S 34°45' W 057°47'0 0.0
2015-Aug-28 12:32S 34°45' W 057°47'0 0.0
2015-Aug-28 11:33S 34°45' W 057°47'0 0.0
2015-Aug-28 10:31S 34°45' W 057°47'0 0.0
2015-Aug-28 09:31S 34°45' W 057°47'0 0.0
2015-Aug-28 08:28S 34°45' W 057°47'0 0.0
2015-Aug-28 07:31S 34°45' W 057°47'0 0.1
2015-Aug-28 06:19S 34°45' W 057°47'0 0.1
2015-Aug-28 05:31S 34°45' W 057°47'0 0.1
2015-Aug-28 04:31S 34°45' W 057°47'0 0.0
2015-Aug-28 03:31S 34°44' W 057°47'1 0.6
2015-Aug-28 02:33S 34°44' W 057°47'6 5.5
2015-Aug-28 01:33S 34°42' W 057°54'1212.1
2015-Aug-28 00:33S 34°38' W 058°08'1110.8
2015-Aug-27 23:33S 34°32' W 058°19'5 0.1
2015-Aug-25 19:34S 34°29' W 058°24'9 8.7
2015-Aug-25 18:33S 34°35' W 058°16'9 9.3
2015-Aug-25 17:33S 34°39' W 058°06'1110.7
2015-Aug-25 16:34S 34°42' W 057°54'6 5.5
2015-Aug-25 15:33S 34°44' W 057°47'10 9.7
2015-Aug-25 14:33S 34°45' W 057°36'1110.5
2015-Aug-25 13:33S 34°50' W 057°24'1210.2
2015-Aug-25 12:20S 34°59' W 057°13'810.0
2015-Aug-25 11:33S 35°05' W 057°07'10 9.7
2015-Aug-25 10:34S 35°10' W 056°57'1010.2
2015-Aug-25 09:33S 35°10' W 056°45'  
Track history (hours):
 
Tides and Currents Weather Stations Pressure Air Temp Water Temp Dewpoint Dewpoint Depression Visibility Wind Speed Wind Dir Waves Ship Positions

LNG Libra

Last reported at 2015-Aug-31 22:33 UTC. Time now 2015-Sep-02 08:37 UTC.
Position S 25°30' W 041°60'.

Type: Tanker. MMSI: 538001390.

Date/timePositionNaut miles runAvg speedWind from/ knotsBaromVisibWave heightAir tempDewpointWater temp
2015-Aug-31 22:33S 25°30' W 041°60'1515.1
2015-Aug-31 21:33S 25°41' W 042°11'4714.6
2015-Aug-31 18:18S 26°09' W 042°55'1115.2
2015-Aug-31 17:33S 26°13' W 043°06'1515.1
2015-Aug-31 16:33S 26°19' W 043°22'1515.2
2015-Aug-31 15:33S 26°25' W 043°38'1514.8
2015-Aug-31 14:33S 26°31' W 043°53'1514.7
2015-Aug-31 13:32S 26°36' W 044°08'2914.5
2015-Aug-31 11:33S 26°47' W 044°38'6214.4
2015-Aug-31 07:17S 27°10' W 045°42'3813.9
2015-Aug-31 04:32S 27°25' W 046°21'1313.5
2015-Aug-31 03:33S 27°30' W 046°35'1313.5
2015-Aug-31 02:34S 27°35' W 046°49'1413.9
2015-Aug-31 01:33S 27°41' W 047°04'1414.1
2015-Aug-31 00:34S 27°46' W 047°19'1413.8
2015-Aug-30 23:33S 27°53' W 047°32'1414.1
2015-Aug-30 22:33S 28°05' W 047°41'1514.4
2015-Aug-30 21:30S 28°18' W 047°50'1414.4
2015-Aug-30 20:33S 28°29' W 047°58'1414.2
2015-Aug-30 19:33S 28°41' W 048°07'1414.1
2015-Aug-30 18:33S 28°53' W 048°15'1414.1
2015-Aug-30 17:33S 29°05' W 048°24'1414.1
2015-Aug-30 16:33S 29°17' W 048°32'1413.7
2015-Aug-30 15:31S 29°29' W 048°41'1414.1
2015-Aug-30 14:33S 29°41' W 048°49'4313.6
2015-Aug-30 11:25S 30°17' W 049°15'1213.2
2015-Aug-30 10:33S 30°27' W 049°22'1313.1
2015-Aug-30 09:32S 30°38' W 049°31'47212.0
2015-Aug-28 18:23S 34°50' W 057°24'1012.1
2015-Aug-28 17:33S 34°46' W 057°35'10 9.8
2015-Aug-28 16:33S 34°45' W 057°47'0 0.3
2015-Aug-28 15:33S 34°45' W 057°47'0 0.0
2015-Aug-28 14:33S 34°45' W 057°47'0 0.0
2015-Aug-28 13:33S 34°45' W 057°47'0 0.0
2015-Aug-28 12:32S 34°45' W 057°47'0 0.0
2015-Aug-28 11:33S 34°45' W 057°47'0 0.0
2015-Aug-28 10:31S 34°45' W 057°47'0 0.0
2015-Aug-28 09:31S 34°45' W 057°47'0 0.0
2015-Aug-28 08:28S 34°45' W 057°47'0 0.0
2015-Aug-28 07:31S 34°45' W 057°47'0 0.1
2015-Aug-28 06:19S 34°45' W 057°47'0 0.1
2015-Aug-28 05:31S 34°45' W 057°47'0 0.1
2015-Aug-28 04:31S 34°45' W 057°47'0 0.0
2015-Aug-28 03:31S 34°44' W 057°47'1 0.6
2015-Aug-28 02:33S 34°44' W 057°47'6 5.5
2015-Aug-28 01:33S 34°42' W 057°54'1212.1
2015-Aug-28 00:33S 34°38' W 058°08'1110.8
2015-Aug-27 23:33S 34°32' W 058°19'5 0.1
2015-Aug-25 19:34S 34°29' W 058°24'9 8.7
2015-Aug-25 18:33S 34°35' W 058°16'9 9.3
2015-Aug-25 17:33S 34°39' W 058°06'1110.7
2015-Aug-25 16:34S 34°42' W 057°54'6 5.5
2015-Aug-25 15:33S 34°44' W 057°47'10 9.7
2015-Aug-25 14:33S 34°45' W 057°36'1110.5
2015-Aug-25 13:33S 34°50' W 057°24'1210.2
2015-Aug-25 12:20S 34°59' W 057°13'810.0
2015-Aug-25 11:33S 35°05' W 057°07'10 9.7
2015-Aug-25 10:34S 35°10' W 056°57'1010.2
2015-Aug-25 09:33S 35°10' W 056°45'  

Dump ship's entire track history